sensor_id;sensor_type;location;lat;lon;timestamp;P1;P2;P0
57289;PMS5003;43523;53.022;-1.178;2023-06-14T00:00:44;10;10;
57289;PMS5003;43523;53.022;-1.178;2023-06-14T00:01:46;9;9;
57289;PMS5003;43523;53.022;-1.178;2023-06-14T00:02:48;11;10;
57289;PMS5003;43523;53.022;-1.178;2023-06-14T00:03:51;13;9;
57289;PMS5003;43523;53.022;-1.178;2023-06-14T00:04:53;11;8;
57289;PMS5003;43523;53.022;-1.178;2023-06-14T00:05:55;13;10;
57289;PMS5003;43523;53.022;-1.178;2023-06-14T00:06:58;10;9;
57289;PMS5003;43523;53.022;-1.178;2023-06-14T00:08:00;11;9;
57289;PMS5003;43523;53.022;-1.178;2023-06-14T00:09:03;12;12;
57289;PMS5003;43523;53.022;-1.178;2023-06-14T00:10:05;9;9;
57289;PMS5003;43523;53.022;-1.178;2023-06-14T00:11:08;11;9;
57289;PMS5003;43523;53.022;-1.178;2023-06-14T00:12:10;9;9;
57289;PMS5003;43523;53.022;-1.178;2023-06-14T00:13:13;13;8;
57289;PMS5003;43523;53.022;-1.178;2023-06-14T00:14:15;10;8;
57289;PMS5003;43523;53.022;-1.178;2023-06-14T00:15:17;10;9;
57289;PMS5003;43523;53.022;-1.178;2023-06-14T00:16:20;14;10;
57289;PMS5003;43523;53.022;-1.178;2023-06-14T00:17:22;12;9;
57289;PMS5003;43523;53.022;-1.178;2023-06-14T00:18:24;11;9;
57289;PMS5003;43523;53.022;-1.178;2023-06-14T00:19:27;14;11;
57289;PMS5003;43523;53.022;-1.178;2023-06-14T00:20:30;10;9;
57289;PMS5003;43523;53.022;-1.178;2023-06-14T00:21:33;11;11;
57289;PMS5003;43523;53.022;-1.178;2023-06-14T00:22:36;11;7;
57289;PMS5003;43523;53.022;-1.178;2023-06-14T00:23:38;8;8;
57289;PMS5003;43523;53.022;-1.178;2023-06-14T00:24:40;10;10;
57289;PMS5003;43523;53.022;-1.178;2023-06-14T00:25:43;11;9;
57289;PMS5003;43523;53.022;-1.178;2023-06-14T00:26:45;9;8;
57289;PMS5003;43523;53.022;-1.178;2023-06-14T00:27:48;10;10;
57289;PMS5003;43523;53.022;-1.178;2023-06-14T00:28:51;10;10;
57289;PMS5003;43523;53.022;-1.178;2023-06-14T00:29:53;12;9;
57289;PMS5003;43523;53.022;-1.178;2023-06-14T00:30:55;11;10;
57289;PMS5003;43523;53.022;-1.178;2023-06-14T00:31:58;8;8;
57289;PMS5003;43523;53.022;-1.178;2023-06-14T00:33:00;8;8;
57289;PMS5003;43523;53.022;-1.178;2023-06-14T00:34:03;12;10;
57289;PMS5003;43523;53.022;-1.178;2023-06-14T00:35:06;9;9;
57289;PMS5003;43523;53.022;-1.178;2023-06-14T00:36:08;11;10;
57289;PMS5003;43523;53.022;-1.178;2023-06-14T00:37:10;10;9;
57289;PMS5003;43523;53.022;-1.178;2023-06-14T00:38:13;11;11;
57289;PMS5003;43523;53.022;-1.178;2023-06-14T00:39:15;10;8;
57289;PMS5003;43523;53.022;-1.178;2023-06-14T00:40:17;12;10;
57289;PMS5003;43523;53.022;-1.178;2023-06-14T00:41:20;11;10;
57289;PMS5003;43523;53.022;-1.178;2023-06-14T00:42:23;10;9;
57289;PMS5003;43523;53.022;-1.178;2023-06-14T00:43:26;9;9;
57289;PMS5003;43523;53.022;-1.178;2023-06-14T00:44:28;10;10;
57289;PMS5003;43523;53.022;-1.178;2023-06-14T00:45:31;11;8;
57289;PMS5003;43523;53.022;-1.178;2023-06-14T00:46:33;11;11;
57289;PMS5003;43523;53.022;-1.178;2023-06-14T00:47:36;14;10;
57289;PMS5003;43523;53.022;-1.178;2023-06-14T00:48:41;10;9;
57289;PMS5003;43523;53.022;-1.178;2023-06-14T00:49:44;12;10;
57289;PMS5003;43523;53.022;-1.178;2023-06-14T00:50:48;10;10;
57289;PMS5003;43523;53.022;-1.178;2023-06-14T00:51:52;11;8;
57289;PMS5003;43523;53.022;-1.178;2023-06-14T00:52:54;11;11;
57289;PMS5003;43523;53.022;-1.178;2023-06-14T00:53:56;10;9;
57289;PMS5003;43523;53.022;-1.178;2023-06-14T00:54:59;11;9;
57289;PMS5003;43523;53.022;-1.178;2023-06-14T00:56:01;11;10;
57289;PMS5003;43523;53.022;-1.178;2023-06-14T00:57:04;10;10;
57289;PMS5003;43523;53.022;-1.178;2023-06-14T00:58:07;12;8;
57289;PMS5003;43523;53.022;-1.178;2023-06-14T00:59:10;13;12;
57289;PMS5003;43523;53.022;-1.178;2023-06-14T01:00:12;10;10;
57289;PMS5003;43523;53.022;-1.178;2023-06-14T01:01:15;14;9;
57289;PMS5003;43523;53.022;-1.178;2023-06-14T01:02:18;11;9;
57289;PMS5003;43523;53.022;-1.178;2023-06-14T01:03:20;12;10;
57289;PMS5003;43523;53.022;-1.178;2023-06-14T01:04:22;9;9;
57289;PMS5003;43523;53.022;-1.178;2023-06-14T01:05:26;14;11;
57289;PMS5003;43523;53.022;-1.178;2023-06-14T01:06:30;11;10;
57289;PMS5003;43523;53.022;-1.178;2023-06-14T01:07:43;11;10;
57289;PMS5003;43523;53.022;-1.178;2023-06-14T01:08:59;11;11;
57289;PMS5003;43523;53.022;-1.178;2023-06-14T01:10:14;15;13;
57289;PMS5003;43523;53.022;-1.178;2023-06-14T01:11:25;14;12;
57289;PMS5003;43523;53.022;-1.178;2023-06-14T01:12:35;9;9;
57289;PMS5003;43523;53.022;-1.178;2023-06-14T01:13:45;12;11;
57289;PMS5003;43523;53.022;-1.178;2023-06-14T01:14:49;11;11;
57289;PMS5003;43523;53.022;-1.178;2023-06-14T01:15:56;12;11;
57289;PMS5003;43523;53.022;-1.178;2023-06-14T01:16:58;10;9;
57289;PMS5003;43523;53.022;-1.178;2023-06-14T01:18:01;8;8;
57289;PMS5003;43523;53.022;-1.178;2023-06-14T01:19:03;11;11;
57289;PMS5003;43523;53.022;-1.178;2023-06-14T01:20:07;14;8;
57289;PMS5003;43523;53.022;-1.178;2023-06-14T01:21:19;11;9;
57289;PMS5003;43523;53.022;-1.178;2023-06-14T01:22:21;9;9;
57289;PMS5003;43523;53.022;-1.178;2023-06-14T01:23:25;9;9;
57289;PMS5003;43523;53.022;-1.178;2023-06-14T01:24:27;15;12;
57289;PMS5003;43523;53.022;-1.178;2023-06-14T01:25:29;10;9;
57289;PMS5003;43523;53.022;-1.178;2023-06-14T01:26:33;15;12;
57289;PMS5003;43523;53.022;-1.178;2023-06-14T01:27:36;14;12;
57289;PMS5003;43523;53.022;-1.178;2023-06-14T01:28:43;14;11;
57289;PMS5003;43523;53.022;-1.178;2023-06-14T01:29:47;11;9;
57289;PMS5003;43523;53.022;-1.178;2023-06-14T01:30:52;12;8;
57289;PMS5003;43523;53.022;-1.178;2023-06-14T01:31:55;12;10;
57289;PMS5003;43523;53.022;-1.178;2023-06-14T01:32:57;13;10;
57289;PMS5003;43523;53.022;-1.178;2023-06-14T01:34:00;13;12;
57289;PMS5003;43523;53.022;-1.178;2023-06-14T01:35:03;11;11;
57289;PMS5003;43523;53.022;-1.178;2023-06-14T01:36:06;12;11;
57289;PMS5003;43523;53.022;-1.178;2023-06-14T01:37:10;19;12;
57289;PMS5003;43523;53.022;-1.178;2023-06-14T01:38:14;9;9;
57289;PMS5003;43523;53.022;-1.178;2023-06-14T01:39:19;13;12;
57289;PMS5003;43523;53.022;-1.178;2023-06-14T01:40:22;15;11;
57289;PMS5003;43523;53.022;-1.178;2023-06-14T01:41:26;12;11;
57289;PMS5003;43523;53.022;-1.178;2023-06-14T01:42:31;10;10;
57289;PMS5003;43523;53.022;-1.178;2023-06-14T01:43:35;15;15;
57289;PMS5003;43523;53.022;-1.178;2023-06-14T01:44:39;14;11;
57289;PMS5003;43523;53.022;-1.178;2023-06-14T01:45:44;11;11;
57289;PMS5003;43523;53.022;-1.178;2023-06-14T01:46:48;13;11;
57289;PMS5003;43523;53.022;-1.178;2023-06-14T01:47:53;12;9;
57289;PMS5003;43523;53.022;-1.178;2023-06-14T01:48:55;18;13;
57289;PMS5003;43523;53.022;-1.178;2023-06-14T01:49:58;15;14;
57289;PMS5003;43523;53.022;-1.178;2023-06-14T01:51:01;12;11;
57289;PMS5003;43523;53.022;-1.178;2023-06-14T01:52:03;10;10;
57289;PMS5003;43523;53.022;-1.178;2023-06-14T01:53:07;11;10;
57289;PMS5003;43523;53.022;-1.178;2023-06-14T01:54:10;14;12;
57289;PMS5003;43523;53.022;-1.178;2023-06-14T01:55:12;16;13;
57289;PMS5003;43523;53.022;-1.178;2023-06-14T01:56:14;14;14;
57289;PMS5003;43523;53.022;-1.178;2023-06-14T01:57:16;14;14;
57289;PMS5003;43523;53.022;-1.178;2023-06-14T01:58:19;15;11;
57289;PMS5003;43523;53.022;-1.178;2023-06-14T01:59:21;13;12;
57289;PMS5003;43523;53.022;-1.178;2023-06-14T02:00:23;14;12;
57289;PMS5003;43523;53.022;-1.178;2023-06-14T02:01:25;18;14;
57289;PMS5003;43523;53.022;-1.178;2023-06-14T02:02:27;12;12;
57289;PMS5003;43523;53.022;-1.178;2023-06-14T02:03:30;11;11;
57289;PMS5003;43523;53.022;-1.178;2023-06-14T02:04:33;11;11;
57289;PMS5003;43523;53.022;-1.178;2023-06-14T02:05:35;13;11;
57289;PMS5003;43523;53.022;-1.178;2023-06-14T02:06:38;11;10;
57289;PMS5003;43523;53.022;-1.178;2023-06-14T02:07:40;15;13;
57289;PMS5003;43523;53.022;-1.178;2023-06-14T02:08:42;12;12;
57289;PMS5003;43523;53.022;-1.178;2023-06-14T02:09:45;14;12;
57289;PMS5003;43523;53.022;-1.178;2023-06-14T02:10:47;15;11;
57289;PMS5003;43523;53.022;-1.178;2023-06-14T02:11:49;15;13;
57289;PMS5003;43523;53.022;-1.178;2023-06-14T02:12:53;15;12;
57289;PMS5003;43523;53.022;-1.178;2023-06-14T02:13:55;13;12;
57289;PMS5003;43523;53.022;-1.178;2023-06-14T02:14:58;13;13;
57289;PMS5003;43523;53.022;-1.178;2023-06-14T02:16:00;18;14;
57289;PMS5003;43523;53.022;-1.178;2023-06-14T02:17:03;15;14;
57289;PMS5003;43523;53.022;-1.178;2023-06-14T02:18:06;13;12;
57289;PMS5003;43523;53.022;-1.178;2023-06-14T02:19:08;13;12;
57289;PMS5003;43523;53.022;-1.178;2023-06-14T02:20:11;15;14;
57289;PMS5003;43523;53.022;-1.178;2023-06-14T02:21:14;11;11;
57289;PMS5003;43523;53.022;-1.178;2023-06-14T02:22:16;16;15;
57289;PMS5003;43523;53.022;-1.178;2023-06-14T02:23:18;14;14;
57289;PMS5003;43523;53.022;-1.178;2023-06-14T02:24:20;13;13;
57289;PMS5003;43523;53.022;-1.178;2023-06-14T02:25:23;16;13;
57289;PMS5003;43523;53.022;-1.178;2023-06-14T02:26:25;15;11;
57289;PMS5003;43523;53.022;-1.178;2023-06-14T02:27:28;14;11;
57289;PMS5003;43523;53.022;-1.178;2023-06-14T02:28:31;15;12;
57289;PMS5003;43523;53.022;-1.178;2023-06-14T02:29:33;18;15;
57289;PMS5003;43523;53.022;-1.178;2023-06-14T02:30:36;18;14;
57289;PMS5003;43523;53.022;-1.178;2023-06-14T02:31:38;12;12;
57289;PMS5003;43523;53.022;-1.178;2023-06-14T02:32:41;15;15;
57289;PMS5003;43523;53.022;-1.178;2023-06-14T02:33:44;16;14;
57289;PMS5003;43523;53.022;-1.178;2023-06-14T02:34:46;10;10;
57289;PMS5003;43523;53.022;-1.178;2023-06-14T02:35:48;14;13;
57289;PMS5003;43523;53.022;-1.178;2023-06-14T02:36:51;13;13;
57289;PMS5003;43523;53.022;-1.178;2023-06-14T02:37:53;14;14;
57289;PMS5003;43523;53.022;-1.178;2023-06-14T02:38:56;13;12;
57289;PMS5003;43523;53.022;-1.178;2023-06-14T02:39:58;16;16;
57289;PMS5003;43523;53.022;-1.178;2023-06-14T02:41:00;17;14;
57289;PMS5003;43523;53.022;-1.178;2023-06-14T02:42:03;18;14;
57289;PMS5003;43523;53.022;-1.178;2023-06-14T02:43:05;15;14;
57289;PMS5003;43523;53.022;-1.178;2023-06-14T02:44:09;16;14;
57289;PMS5003;43523;53.022;-1.178;2023-06-14T02:45:11;18;16;
57289;PMS5003;43523;53.022;-1.178;2023-06-14T02:46:14;17;14;
57289;PMS5003;43523;53.022;-1.178;2023-06-14T02:47:16;17;15;
57289;PMS5003;43523;53.022;-1.178;2023-06-14T02:48:18;15;15;
57289;PMS5003;43523;53.022;-1.178;2023-06-14T02:49:21;13;11;
57289;PMS5003;43523;53.022;-1.178;2023-06-14T02:50:23;13;13;
57289;PMS5003;43523;53.022;-1.178;2023-06-14T02:51:25;18;18;
57289;PMS5003;43523;53.022;-1.178;2023-06-14T02:52:28;15;15;
57289;PMS5003;43523;53.022;-1.178;2023-06-14T02:53:31;15;14;
57289;PMS5003;43523;53.022;-1.178;2023-06-14T02:54:34;13;13;
57289;PMS5003;43523;53.022;-1.178;2023-06-14T02:55:36;16;15;
57289;PMS5003;43523;53.022;-1.178;2023-06-14T02:56:38;18;14;
57289;PMS5003;43523;53.022;-1.178;2023-06-14T02:57:41;17;16;
57289;PMS5003;43523;53.022;-1.178;2023-06-14T02:58:43;22;15;
57289;PMS5003;43523;53.022;-1.178;2023-06-14T02:59:46;22;21;
57289;PMS5003;43523;53.022;-1.178;2023-06-14T03:00:49;12;12;
57289;PMS5003;43523;53.022;-1.178;2023-06-14T03:01:51;20;18;
57289;PMS5003;43523;53.022;-1.178;2023-06-14T03:02:53;23;16;
57289;PMS5003;43523;53.022;-1.178;2023-06-14T03:03:56;18;14;
57289;PMS5003;43523;53.022;-1.178;2023-06-14T03:04:58;17;16;
57289;PMS5003;43523;53.022;-1.178;2023-06-14T03:06:01;22;19;
57289;PMS5003;43523;53.022;-1.178;2023-06-14T03:07:03;20;19;
57289;PMS5003;43523;53.022;-1.178;2023-06-14T03:08:07;16;15;
57289;PMS5003;43523;53.022;-1.178;2023-06-14T03:09:09;22;19;
57289;PMS5003;43523;53.022;-1.178;2023-06-14T03:10:11;14;13;
57289;PMS5003;43523;53.022;-1.178;2023-06-14T03:11:13;17;17;
57289;PMS5003;43523;53.022;-1.178;2023-06-14T03:12:16;20;18;
57289;PMS5003;43523;53.022;-1.178;2023-06-14T03:13:18;15;15;
57289;PMS5003;43523;53.022;-1.178;2023-06-14T03:14:20;17;17;
57289;PMS5003;43523;53.022;-1.178;2023-06-14T03:15:23;14;14;
57289;PMS5003;43523;53.022;-1.178;2023-06-14T03:16:25;17;13;
57289;PMS5003;43523;53.022;-1.178;2023-06-14T03:17:29;18;16;
57289;PMS5003;43523;53.022;-1.178;2023-06-14T03:18:31;15;14;
57289;PMS5003;43523;53.022;-1.178;2023-06-14T03:19:33;20;16;
57289;PMS5003;43523;53.022;-1.178;2023-06-14T03:20:36;14;14;
57289;PMS5003;43523;53.022;-1.178;2023-06-14T03:21:38;16;15;
57289;PMS5003;43523;53.022;-1.178;2023-06-14T03:22:41;16;14;
57289;PMS5003;43523;53.022;-1.178;2023-06-14T03:23:43;15;13;
57289;PMS5003;43523;53.022;-1.178;2023-06-14T03:24:45;17;17;
57289;PMS5003;43523;53.022;-1.178;2023-06-14T03:25:47;22;18;
57289;PMS5003;43523;53.022;-1.178;2023-06-14T03:26:51;15;15;
57289;PMS5003;43523;53.022;-1.178;2023-06-14T03:27:53;14;14;
57289;PMS5003;43523;53.022;-1.178;2023-06-14T03:28:56;19;16;
57289;PMS5003;43523;53.022;-1.178;2023-06-14T03:29:59;20;18;
57289;PMS5003;43523;53.022;-1.178;2023-06-14T03:31:01;19;17;
57289;PMS5003;43523;53.022;-1.178;2023-06-14T03:32:04;18;17;
57289;PMS5003;43523;53.022;-1.178;2023-06-14T03:33:07;15;14;
57289;PMS5003;43523;53.022;-1.178;2023-06-14T03:34:10;18;16;
57289;PMS5003;43523;53.022;-1.178;2023-06-14T03:35:13;17;17;
57289;PMS5003;43523;53.022;-1.178;2023-06-14T03:36:15;15;15;
57289;PMS5003;43523;53.022;-1.178;2023-06-14T03:37:17;20;15;
57289;PMS5003;43523;53.022;-1.178;2023-06-14T03:38:20;17;16;
57289;PMS5003;43523;53.022;-1.178;2023-06-14T03:39:22;19;16;
57289;PMS5003;43523;53.022;-1.178;2023-06-14T03:40:25;14;14;
57289;PMS5003;43523;53.022;-1.178;2023-06-14T03:41:27;24;19;
57289;PMS5003;43523;53.022;-1.178;2023-06-14T03:42:29;16;13;
57289;PMS5003;43523;53.022;-1.178;2023-06-14T03:43:32;14;14;
57289;PMS5003;43523;53.022;-1.178;2023-06-14T03:44:34;13;12;
57289;PMS5003;43523;53.022;-1.178;2023-06-14T03:45:36;14;14;
57289;PMS5003;43523;53.022;-1.178;2023-06-14T03:46:38;14;13;
57289;PMS5003;43523;53.022;-1.178;2023-06-14T03:47:40;13;13;
57289;PMS5003;43523;53.022;-1.178;2023-06-14T03:48:42;17;16;
57289;PMS5003;43523;53.022;-1.178;2023-06-14T03:49:44;15;13;
57289;PMS5003;43523;53.022;-1.178;2023-06-14T03:50:47;15;15;
57289;PMS5003;43523;53.022;-1.178;2023-06-14T03:51:49;20;16;
57289;PMS5003;43523;53.022;-1.178;2023-06-14T03:52:52;16;14;
57289;PMS5003;43523;53.022;-1.178;2023-06-14T03:53:55;18;17;
57289;PMS5003;43523;53.022;-1.178;2023-06-14T03:54:57;18;16;
57289;PMS5003;43523;53.022;-1.178;2023-06-14T03:55:59;17;17;
57289;PMS5003;43523;53.022;-1.178;2023-06-14T03:57:02;17;16;
57289;PMS5003;43523;53.022;-1.178;2023-06-14T03:58:04;19;14;
57289;PMS5003;43523;53.022;-1.178;2023-06-14T03:59:07;20;13;
57289;PMS5003;43523;53.022;-1.178;2023-06-14T04:00:09;14;14;
57289;PMS5003;43523;53.022;-1.178;2023-06-14T04:01:13;15;13;
57289;PMS5003;43523;53.022;-1.178;2023-06-14T04:02:15;18;15;
57289;PMS5003;43523;53.022;-1.178;2023-06-14T04:03:17;17;15;
57289;PMS5003;43523;53.022;-1.178;2023-06-14T04:04:20;19;16;
57289;PMS5003;43523;53.022;-1.178;2023-06-14T04:05:23;16;14;
57289;PMS5003;43523;53.022;-1.178;2023-06-14T04:06:26;16;15;
57289;PMS5003;43523;53.022;-1.178;2023-06-14T04:07:28;20;18;
57289;PMS5003;43523;53.022;-1.178;2023-06-14T04:08:30;12;12;
57289;PMS5003;43523;53.022;-1.178;2023-06-14T04:09:34;20;18;
57289;PMS5003;43523;53.022;-1.178;2023-06-14T04:10:36;15;14;
57289;PMS5003;43523;53.022;-1.178;2023-06-14T04:11:39;14;13;
57289;PMS5003;43523;53.022;-1.178;2023-06-14T04:12:42;14;13;
57289;PMS5003;43523;53.022;-1.178;2023-06-14T04:13:44;17;16;
57289;PMS5003;43523;53.022;-1.178;2023-06-14T04:14:46;13;13;
57289;PMS5003;43523;53.022;-1.178;2023-06-14T04:15:49;17;16;
57289;PMS5003;43523;53.022;-1.178;2023-06-14T04:16:51;16;16;
57289;PMS5003;43523;53.022;-1.178;2023-06-14T04:17:53;15;14;
57289;PMS5003;43523;53.022;-1.178;2023-06-14T04:18:56;17;15;
57289;PMS5003;43523;53.022;-1.178;2023-06-14T04:19:58;16;14;
57289;PMS5003;43523;53.022;-1.178;2023-06-14T04:21:01;22;16;
57289;PMS5003;43523;53.022;-1.178;2023-06-14T04:22:04;19;19;
57289;PMS5003;43523;53.022;-1.178;2023-06-14T04:23:14;15;15;
57289;PMS5003;43523;53.022;-1.178;2023-06-14T04:24:18;18;15;
57289;PMS5003;43523;53.022;-1.178;2023-06-14T04:25:20;15;13;
57289;PMS5003;43523;53.022;-1.178;2023-06-14T04:26:23;17;14;
57289;PMS5003;43523;53.022;-1.178;2023-06-14T04:27:26;14;12;
57289;PMS5003;43523;53.022;-1.178;2023-06-14T04:28:29;18;14;
57289;PMS5003;43523;53.022;-1.178;2023-06-14T04:29:31;14;13;
57289;PMS5003;43523;53.022;-1.178;2023-06-14T04:30:34;13;13;
57289;PMS5003;43523;53.022;-1.178;2023-06-14T04:31:36;15;13;
57289;PMS5003;43523;53.022;-1.178;2023-06-14T04:32:39;15;15;
57289;PMS5003;43523;53.022;-1.178;2023-06-14T04:33:41;16;15;
57289;PMS5003;43523;53.022;-1.178;2023-06-14T04:34:43;15;13;
57289;PMS5003;43523;53.022;-1.178;2023-06-14T04:35:45;17;15;
57289;PMS5003;43523;53.022;-1.178;2023-06-14T04:36:48;14;14;
57289;PMS5003;43523;53.022;-1.178;2023-06-14T04:37:51;13;13;
57289;PMS5003;43523;53.022;-1.178;2023-06-14T04:38:53;16;14;
57289;PMS5003;43523;53.022;-1.178;2023-06-14T04:39:56;20;18;
57289;PMS5003;43523;53.022;-1.178;2023-06-14T04:40:59;15;13;
57289;PMS5003;43523;53.022;-1.178;2023-06-14T04:42:01;16;16;
57289;PMS5003;43523;53.022;-1.178;2023-06-14T04:43:03;20;16;
57289;PMS5003;43523;53.022;-1.178;2023-06-14T04:44:05;13;13;
57289;PMS5003;43523;53.022;-1.178;2023-06-14T04:45:08;15;15;
57289;PMS5003;43523;53.022;-1.178;2023-06-14T04:46:11;14;14;
57289;PMS5003;43523;53.022;-1.178;2023-06-14T04:47:13;17;14;
57289;PMS5003;43523;53.022;-1.178;2023-06-14T04:48:16;15;14;
57289;PMS5003;43523;53.022;-1.178;2023-06-14T04:49:18;22;19;
57289;PMS5003;43523;53.022;-1.178;2023-06-14T04:50:20;15;11;
57289;PMS5003;43523;53.022;-1.178;2023-06-14T04:51:23;14;13;
57289;PMS5003;43523;53.022;-1.178;2023-06-14T04:52:25;18;14;
57289;PMS5003;43523;53.022;-1.178;2023-06-14T04:53:27;15;13;
57289;PMS5003;43523;53.022;-1.178;2023-06-14T04:54:30;15;15;
57289;PMS5003;43523;53.022;-1.178;2023-06-14T04:55:33;16;15;
57289;PMS5003;43523;53.022;-1.178;2023-06-14T04:56:35;12;12;
57289;PMS5003;43523;53.022;-1.178;2023-06-14T04:57:37;16;12;
57289;PMS5003;43523;53.022;-1.178;2023-06-14T04:58:40;13;13;
57289;PMS5003;43523;53.022;-1.178;2023-06-14T04:59:42;12;12;
57289;PMS5003;43523;53.022;-1.178;2023-06-14T05:00:45;19;15;
57289;PMS5003;43523;53.022;-1.178;2023-06-14T05:01:48;13;13;
57289;PMS5003;43523;53.022;-1.178;2023-06-14T05:02:51;15;13;
57289;PMS5003;43523;53.022;-1.178;2023-06-14T05:03:54;17;14;
57289;PMS5003;43523;53.022;-1.178;2023-06-14T05:04:56;16;14;
57289;PMS5003;43523;53.022;-1.178;2023-06-14T05:06:00;15;13;
57289;PMS5003;43523;53.022;-1.178;2023-06-14T05:07:04;17;16;
57289;PMS5003;43523;53.022;-1.178;2023-06-14T05:08:07;12;12;
57289;PMS5003;43523;53.022;-1.178;2023-06-14T05:09:09;18;14;
57289;PMS5003;43523;53.022;-1.178;2023-06-14T05:10:11;18;15;
57289;PMS5003;43523;53.022;-1.178;2023-06-14T05:11:14;16;14;
57289;PMS5003;43523;53.022;-1.178;2023-06-14T05:12:16;15;13;
57289;PMS5003;43523;53.022;-1.178;2023-06-14T05:13:18;13;13;
57289;PMS5003;43523;53.022;-1.178;2023-06-14T05:14:21;16;13;
57289;PMS5003;43523;53.022;-1.178;2023-06-14T05:15:24;16;16;
57289;PMS5003;43523;53.022;-1.178;2023-06-14T05:16:26;16;14;
57289;PMS5003;43523;53.022;-1.178;2023-06-14T05:17:28;14;14;
57289;PMS5003;43523;53.022;-1.178;2023-06-14T05:18:31;15;12;
57289;PMS5003;43523;53.022;-1.178;2023-06-14T05:19:33;13;11;
57289;PMS5003;43523;53.022;-1.178;2023-06-14T05:20:35;15;12;
57289;PMS5003;43523;53.022;-1.178;2023-06-14T05:21:37;22;17;
57289;PMS5003;43523;53.022;-1.178;2023-06-14T05:22:40;17;14;
57289;PMS5003;43523;53.022;-1.178;2023-06-14T05:23:42;14;12;
57289;PMS5003;43523;53.022;-1.178;2023-06-14T05:24:45;12;11;
57289;PMS5003;43523;53.022;-1.178;2023-06-14T05:25:47;15;13;
57289;PMS5003;43523;53.022;-1.178;2023-06-14T05:26:49;12;12;
57289;PMS5003;43523;53.022;-1.178;2023-06-14T05:27:52;15;14;
57289;PMS5003;43523;53.022;-1.178;2023-06-14T05:28:55;18;12;
57289;PMS5003;43523;53.022;-1.178;2023-06-14T05:29:57;12;12;
57289;PMS5003;43523;53.022;-1.178;2023-06-14T05:31:00;11;11;
57289;PMS5003;43523;53.022;-1.178;2023-06-14T05:32:02;15;13;
57289;PMS5003;43523;53.022;-1.178;2023-06-14T05:33:04;14;11;
57289;PMS5003;43523;53.022;-1.178;2023-06-14T05:34:08;14;11;
57289;PMS5003;43523;53.022;-1.178;2023-06-14T05:35:10;11;11;
57289;PMS5003;43523;53.022;-1.178;2023-06-14T05:36:13;13;13;
57289;PMS5003;43523;53.022;-1.178;2023-06-14T05:37:16;15;14;
57289;PMS5003;43523;53.022;-1.178;2023-06-14T05:38:18;13;12;
57289;PMS5003;43523;53.022;-1.178;2023-06-14T05:39:20;13;11;
57289;PMS5003;43523;53.022;-1.178;2023-06-14T05:40:26;12;11;
57289;PMS5003;43523;53.022;-1.178;2023-06-14T05:41:29;14;10;
57289;PMS5003;43523;53.022;-1.178;2023-06-14T05:42:32;10;10;
57289;PMS5003;43523;53.022;-1.178;2023-06-14T05:43:34;13;10;
57289;PMS5003;43523;53.022;-1.178;2023-06-14T05:44:37;15;14;
57289;PMS5003;43523;53.022;-1.178;2023-06-14T05:45:39;12;10;
57289;PMS5003;43523;53.022;-1.178;2023-06-14T05:46:41;17;12;
57289;PMS5003;43523;53.022;-1.178;2023-06-14T05:47:44;14;11;
57289;PMS5003;43523;53.022;-1.178;2023-06-14T05:48:47;13;12;
57289;PMS5003;43523;53.022;-1.178;2023-06-14T05:49:49;13;11;
57289;PMS5003;43523;53.022;-1.178;2023-06-14T05:50:52;14;11;
57289;PMS5003;43523;53.022;-1.178;2023-06-14T05:51:55;13;13;
57289;PMS5003;43523;53.022;-1.178;2023-06-14T05:52:57;15;13;
57289;PMS5003;43523;53.022;-1.178;2023-06-14T05:53:59;12;10;
57289;PMS5003;43523;53.022;-1.178;2023-06-14T05:55:02;11;11;
57289;PMS5003;43523;53.022;-1.178;2023-06-14T05:56:05;14;14;
57289;PMS5003;43523;53.022;-1.178;2023-06-14T05:57:07;12;10;
57289;PMS5003;43523;53.022;-1.178;2023-06-14T05:58:09;14;12;
57289;PMS5003;43523;53.022;-1.178;2023-06-14T05:59:12;9;9;
57289;PMS5003;43523;53.022;-1.178;2023-06-14T06:00:15;13;11;
57289;PMS5003;43523;53.022;-1.178;2023-06-14T06:01:18;11;11;
57289;PMS5003;43523;53.022;-1.178;2023-06-14T06:02:20;13;11;
57289;PMS5003;43523;53.022;-1.178;2023-06-14T06:03:22;9;9;
57289;PMS5003;43523;53.022;-1.178;2023-06-14T06:04:24;10;9;
57289;PMS5003;43523;53.022;-1.178;2023-06-14T06:05:27;11;11;
57289;PMS5003;43523;53.022;-1.178;2023-06-14T06:06:29;12;9;
57289;PMS5003;43523;53.022;-1.178;2023-06-14T06:07:32;11;10;
57289;PMS5003;43523;53.022;-1.178;2023-06-14T06:08:35;14;14;
57289;PMS5003;43523;53.022;-1.178;2023-06-14T06:09:37;10;9;
57289;PMS5003;43523;53.022;-1.178;2023-06-14T06:10:40;12;10;
57289;PMS5003;43523;53.022;-1.178;2023-06-14T06:11:42;14;11;
57289;PMS5003;43523;53.022;-1.178;2023-06-14T06:12:44;16;13;
57289;PMS5003;43523;53.022;-1.178;2023-06-14T06:13:46;12;9;
57289;PMS5003;43523;53.022;-1.178;2023-06-14T06:14:49;11;10;
57289;PMS5003;43523;53.022;-1.178;2023-06-14T06:15:51;11;9;
57289;PMS5003;43523;53.022;-1.178;2023-06-14T06:16:54;8;6;
57289;PMS5003;43523;53.022;-1.178;2023-06-14T06:17:56;12;10;
57289;PMS5003;43523;53.022;-1.178;2023-06-14T06:18:58;9;8;
57289;PMS5003;43523;53.022;-1.178;2023-06-14T06:20:00;12;11;
57289;PMS5003;43523;53.022;-1.178;2023-06-14T06:21:03;9;9;
57289;PMS5003;43523;53.022;-1.178;2023-06-14T06:22:05;8;8;
57289;PMS5003;43523;53.022;-1.178;2023-06-14T06:23:07;16;10;
57289;PMS5003;43523;53.022;-1.178;2023-06-14T06:24:10;13;7;
57289;PMS5003;43523;53.022;-1.178;2023-06-14T06:25:12;8;8;
57289;PMS5003;43523;53.022;-1.178;2023-06-14T06:26:15;13;11;
57289;PMS5003;43523;53.022;-1.178;2023-06-14T06:27:17;8;6;
57289;PMS5003;43523;53.022;-1.178;2023-06-14T06:28:19;10;9;
57289;PMS5003;43523;53.022;-1.178;2023-06-14T06:29:22;12;10;
57289;PMS5003;43523;53.022;-1.178;2023-06-14T06:30:24;10;7;
57289;PMS5003;43523;53.022;-1.178;2023-06-14T06:31:26;12;9;
57289;PMS5003;43523;53.022;-1.178;2023-06-14T06:32:28;11;9;
57289;PMS5003;43523;53.022;-1.178;2023-06-14T06:33:31;10;9;
57289;PMS5003;43523;53.022;-1.178;2023-06-14T06:34:34;14;13;
57289;PMS5003;43523;53.022;-1.178;2023-06-14T06:35:37;10;9;
57289;PMS5003;43523;53.022;-1.178;2023-06-14T06:36:39;15;13;
57289;PMS5003;43523;53.022;-1.178;2023-06-14T06:37:41;11;9;
57289;PMS5003;43523;53.022;-1.178;2023-06-14T06:38:44;8;7;
57289;PMS5003;43523;53.022;-1.178;2023-06-14T06:39:46;9;9;
57289;PMS5003;43523;53.022;-1.178;2023-06-14T06:40:48;12;9;
57289;PMS5003;43523;53.022;-1.178;2023-06-14T06:41:51;12;8;
57289;PMS5003;43523;53.022;-1.178;2023-06-14T06:42:53;9;7;
57289;PMS5003;43523;53.022;-1.178;2023-06-14T06:43:56;7;7;
57289;PMS5003;43523;53.022;-1.178;2023-06-14T06:44:59;13;10;
57289;PMS5003;43523;53.022;-1.178;2023-06-14T06:46:01;8;7;
57289;PMS5003;43523;53.022;-1.178;2023-06-14T06:47:04;10;9;
57289;PMS5003;43523;53.022;-1.178;2023-06-14T06:48:07;16;12;
57289;PMS5003;43523;53.022;-1.178;2023-06-14T06:49:10;10;9;
57289;PMS5003;43523;53.022;-1.178;2023-06-14T06:50:12;15;9;
57289;PMS5003;43523;53.022;-1.178;2023-06-14T06:51:14;12;10;
57289;PMS5003;43523;53.022;-1.178;2023-06-14T06:52:17;13;9;